Time;durP1;ratioP1;P1;durP2;ratioP2;P2;SDS_P1;SDS_P2;PMS_P1;PMS_P2;Temp;Humidity;BMP_temperature;BMP_pressure;BME280_temperature;BME280_humidity;BME280_pressure;Samples;Min_cycle;Max_cycle;Signal;HPM_P1;HPM_P2
2020/12/08 00:00:10;;;;;;;38.13;27.67;;;21.50;53.90;;;;;;5074229;28;20447;-67
2020/12/08 00:02:36;;;;;;;35.03;27.80;;;21.50;53.90;;;;;;5072673;28;20463;-66
2020/12/08 00:05:03;;;;;;;38.23;27.87;;;21.50;53.90;;;;;;5074146;28;20412;-66
2020/12/08 00:07:29;;;;;;;40.77;28.10;;;21.50;53.80;;;;;;5074447;28;20672;-66
2020/12/08 00:09:55;;;;;;;46.03;30.40;;;21.50;53.80;;;;;;5073995;28;20529;-65
2020/12/08 00:12:25;;;;;;;38.57;27.50;;;21.50;53.70;;;;;;5073968;28;20267;-67
2020/12/08 00:14:51;;;;;;;35.17;25.23;;;21.60;53.80;;;;;;5073970;28;20653;-66
2020/12/08 00:17:17;;;;;;;34.00;24.67;;;21.50;53.60;;;;;;5072663;28;20520;-64
2020/12/08 00:19:42;;;;;;;32.80;23.07;;;21.60;53.70;;;;;;5073872;28;20198;-66
2020/12/08 00:22:08;;;;;;;35.50;22.20;;;21.60;53.70;;;;;;5073897;28;21157;-66
2020/12/08 00:24:34;;;;;;;29.40;22.63;;;21.60;53.60;;;;;;5073844;28;20169;-65
2020/12/08 00:26:59;;;;;;;28.37;21.00;;;21.60;53.70;;;;;;5073764;28;20176;-66
2020/12/08 00:29:25;;;;;;;31.73;22.10;;;21.60;53.60;;;;;;5073912;28;20212;-64
2020/12/08 00:31:50;;;;;;;30.37;22.40;;;21.60;53.60;;;;;;5073524;28;20191;-66
2020/12/08 00:34:16;;;;;;;28.37;20.43;;;21.60;53.60;;;;;;5073866;28;20202;-66
2020/12/08 00:36:42;;;;;;;28.17;22.37;;;21.60;53.60;;;;;;5073572;28;20166;-66
2020/12/08 00:39:08;;;;;;;29.37;22.30;;;21.60;53.60;;;;;;5073834;28;20182;-66
2020/12/08 00:41:34;;;;;;;30.63;22.87;;;21.60;53.60;;;;;;5073334;28;20821;-66
2020/12/08 00:43:59;;;;;;;29.90;22.17;;;21.70;53.60;;;;;;5073523;28;20511;-66
2020/12/08 00:46:25;;;;;;;35.33;23.53;;;21.70;53.60;;;;;;5073720;28;20166;-66
2020/12/08 00:48:50;;;;;;;34.20;23.00;;;21.70;53.60;;;;;;5073648;28;20167;-66
2020/12/08 00:51:17;;;;;;;34.20;24.57;;;21.70;53.50;;;;;;5073338;28;20172;-65
2020/12/08 00:53:42;;;;;;;30.20;22.30;;;21.70;53.60;;;;;;5073429;28;20166;-66
2020/12/08 00:56:13;;;;;;;32.80;23.37;;;21.60;53.50;;;;;;5073431;28;20409;-64
2020/12/08 00:58:38;;;;;;;28.17;21.87;;;21.60;53.60;;;;;;5073591;28;20545;-66
2020/12/08 01:01:05;;;;;;;26.13;19.73;;;21.60;53.60;;;;;;5071819;28;20452;-66
2020/12/08 01:03:31;;;;;;;25.50;19.90;;;21.60;53.60;;;;;;5073241;28;20166;-65
2020/12/08 01:05:57;;;;;;;26.60;20.23;;;21.60;53.60;;;;;;5073125;28;20400;-66
2020/12/08 01:08:23;;;;;;;31.40;23.40;;;21.60;53.60;;;;;;5073114;28;20508;-66
2020/12/08 01:10:49;;;;;;;31.80;21.33;;;21.60;53.60;;;;;;5073332;28;20470;-66
2020/12/08 01:13:14;;;;;;;22.70;18.90;;;21.60;53.60;;;;;;5072603;28;20186;-65
2020/12/08 01:15:40;;;;;;;27.70;20.53;;;21.60;53.70;;;;;;5073084;28;20163;-64
2020/12/08 01:18:06;;;;;;;35.00;21.93;;;21.60;53.70;;;;;;5073326;28;20171;-66
2020/12/08 01:20:31;;;;;;;27.70;19.27;;;21.60;53.70;;;;;;5073025;28;20197;-65
2020/12/08 01:22:57;;;;;;;26.53;19.60;;;21.60;53.70;;;;;;5071645;28;20708;-65
2020/12/08 01:25:22;;;;;;;22.20;19.00;;;21.50;53.60;;;;;;5072940;28;20169;-65
2020/12/08 01:27:48;;;;;;;28.50;19.40;;;21.50;53.70;;;;;;5073007;28;20171;-65
2020/12/08 01:30:14;;;;;;;27.67;20.83;;;21.50;53.70;;;;;;5072946;28;20174;-65
2020/12/08 01:32:39;;;;;;;28.97;20.30;;;21.50;54.20;;;;;;5071568;28;20205;-66
2020/12/08 01:35:05;;;;;;;21.70;17.37;;;21.50;53.70;;;;;;5073153;28;20174;-65
2020/12/08 01:37:30;;;;;;;22.67;18.60;;;21.50;53.70;;;;;;5072846;28;20182;-64
2020/12/08 01:39:56;;;;;;;25.20;18.60;;;21.50;53.70;;;;;;5072786;28;20197;-66
2020/12/08 01:42:22;;;;;;;24.00;16.60;;;21.50;53.80;;;;;;5072704;28;20186;-65
2020/12/08 01:44:49;;;;;;;22.77;16.83;;;21.50;53.80;;;;;;5073115;28;20162;-66
2020/12/08 01:47:16;;;;;;;20.70;16.70;;;21.50;53.80;;;;;;5072631;28;20261;-66
2020/12/08 01:49:45;;;;;;;24.13;17.40;;;21.50;53.80;;;;;;5072913;28;20440;-65
2020/12/08 01:52:19;;;;;;;23.23;17.63;;;21.50;53.80;;;;;;5072732;28;20452;-66
2020/12/08 01:54:46;;;;;;;24.80;17.30;;;21.50;53.80;;;;;;5070883;28;20419;-66
2020/12/08 01:57:12;;;;;;;22.40;16.37;;;21.50;54.30;;;;;;5072712;28;20404;-67
2020/12/08 01:59:38;;;;;;;21.50;15.50;;;21.50;53.80;;;;;;5072825;28;20404;-65
2020/12/08 02:02:04;;;;;;;21.80;15.70;;;21.50;53.80;;;;;;5072516;28;20444;-66
2020/12/08 02:04:31;;;;;;;23.70;17.43;;;21.50;53.80;;;;;;5072853;28;20668;-66
2020/12/08 02:06:57;;;;;;;27.23;17.13;;;21.50;53.80;;;;;;5072587;28;20436;-66
2020/12/08 02:09:22;;;;;;;26.13;17.90;;;21.50;53.80;;;;;;5072435;28;20455;-65
2020/12/08 02:11:49;;;;;;;25.20;17.70;;;21.50;53.80;;;;;;5072417;28;20421;-66
2020/12/08 02:14:15;;;;;;;23.70;16.47;;;21.50;54.40;;;;;;5072536;28;20171;-65
2020/12/08 02:16:41;;;;;;;23.60;17.13;;;21.40;53.70;;;;;;5072478;28;20403;-66
2020/12/08 02:19:07;;;;;;;21.47;15.10;;;21.50;53.70;;;;;;5072430;28;20174;-65
2020/12/08 02:21:34;;;;;;;23.93;16.80;;;21.50;53.70;;;;;;5070942;28;20486;-66
2020/12/08 02:24:00;;;;;;;21.83;15.73;;;21.50;53.60;;;;;;5072431;28;20409;-66
2020/12/08 02:26:26;;;;;;;20.57;15.40;;;21.50;53.60;;;;;;5075237;28;20435;-65
2020/12/08 02:28:54;;;;;;;19.90;15.37;;;21.60;53.60;;;;;;5075987;28;20396;-66
2020/12/08 02:31:20;;;;;;;21.60;14.63;;;21.60;53.60;;;;;;5076032;28;20403;-64
2020/12/08 02:33:45;;;;;;;22.60;14.77;;;21.60;53.50;;;;;;5075994;28;20432;-66
2020/12/08 02:36:11;;;;;;;20.17;14.90;;;21.60;53.60;;;;;;5075893;28;20942;-66
2020/12/08 02:38:37;;;;;;;22.23;13.97;;;21.60;53.50;;;;;;5075900;28;20605;-66
2020/12/08 02:41:04;;;;;;;19.60;14.10;;;21.60;53.50;;;;;;5075801;28;20216;-65
2020/12/08 02:43:30;;;;;;;17.97;13.70;;;21.60;53.50;;;;;;5075780;28;20162;-66
2020/12/08 02:45:58;;;;;;;19.57;13.87;;;21.60;53.50;;;;;;5075706;28;20504;-66
2020/12/08 02:48:24;;;;;;;17.23;13.30;;;21.60;53.50;;;;;;5075700;28;20404;-66
2020/12/08 02:50:49;;;;;;;18.00;13.00;;;21.60;53.40;;;;;;5075628;28;20423;-66
2020/12/08 02:53:15;;;;;;;16.33;12.83;;;21.60;53.40;;;;;;5075871;28;20624;-66
2020/12/08 02:55:45;;;;;;;17.30;14.63;;;21.60;53.40;;;;;;5075587;28;20170;-66
2020/12/08 02:58:11;;;;;;;19.43;14.20;;;21.60;53.40;;;;;;5075612;28;20155;-66
2020/12/08 03:00:36;;;;;;;19.30;13.40;;;21.60;53.40;;;;;;5075655;28;20451;-66
2020/12/08 03:03:02;;;;;;;16.60;13.10;;;21.60;53.50;;;;;;5075667;28;20547;-66
2020/12/08 03:05:27;;;;;;;19.20;13.13;;;21.60;53.50;;;;;;5075405;28;20224;-66
2020/12/08 03:07:53;;;;;;;16.50;12.80;;;21.60;53.40;;;;;;5075618;28;20640;-66
2020/12/08 03:10:19;;;;;;;16.17;13.10;;;21.60;53.40;;;;;;5075169;28;20216;-66
2020/12/08 03:12:45;;;;;;;18.70;13.70;;;21.60;53.40;;;;;;5075208;28;20189;-65
2020/12/08 03:15:10;;;;;;;17.07;12.17;;;21.60;53.40;;;;;;5075245;28;20194;-64
2020/12/08 03:17:36;;;;;;;16.60;12.40;;;21.60;53.40;;;;;;5075431;28;20774;-66
2020/12/08 03:20:02;;;;;;;18.47;12.50;;;21.60;53.40;;;;;;5075116;28;20221;-66
2020/12/08 03:22:28;;;;;;;17.87;12.40;;;21.60;53.40;;;;;;5075050;28;20191;-66
2020/12/08 03:24:53;;;;;;;14.20;10.70;;;21.60;53.40;;;;;;5075057;28;20845;-66
2020/12/08 03:27:19;;;;;;;19.67;12.93;;;21.60;53.40;;;;;;5073742;28;20261;-66
2020/12/08 03:29:45;;;;;;;14.33;11.47;;;21.60;53.40;;;;;;5074946;28;20166;-66
2020/12/08 03:32:10;;;;;;;16.40;13.50;;;21.60;53.30;;;;;;5075161;28;20201;-66
2020/12/08 03:34:36;;;;;;;16.17;11.43;;;21.60;53.30;;;;;;5074852;28;20167;-66
2020/12/08 03:37:02;;;;;;;16.57;11.47;;;21.60;53.30;;;;;;5074322;28;20532;-66
2020/12/08 03:39:28;;;;;;;13.77;11.60;;;21.60;53.30;;;;;;5074656;28;20420;-66
2020/12/08 03:41:58;;;;;;;15.10;10.97;;;21.60;53.30;;;;;;5074818;28;20201;-65
2020/12/08 03:44:23;;;;;;;17.43;12.10;;;21.60;53.30;;;;;;5074956;28;20566;-65
2020/12/08 03:46:49;;;;;;;12.33;9.97;;;21.60;53.30;;;;;;5074597;28;20438;-66
2020/12/08 03:49:15;;;;;;;14.23;10.53;;;21.60;53.30;;;;;;5074567;28;20190;-65
2020/12/08 03:51:40;;;;;;;15.03;11.60;;;21.60;53.30;;;;;;5074373;28;20197;-65
2020/12/08 03:54:06;;;;;;;18.77;12.90;;;21.60;53.30;;;;;;5074486;28;20257;-65
2020/12/08 03:56:31;;;;;;;14.77;10.97;;;21.60;53.30;;;;;;5073158;28;20249;-65
2020/12/08 03:58:57;;;;;;;16.20;11.70;;;21.60;53.40;;;;;;5074608;28;20174;-64
2020/12/08 04:01:23;;;;;;;17.20;11.87;;;21.60;53.40;;;;;;5074113;28;20210;-66
2020/12/08 04:03:50;;;;;;;12.97;10.70;;;21.60;53.40;;;;;;5074183;28;20188;-66
2020/12/08 04:06:18;;;;;;;14.33;10.80;;;21.60;53.40;;;;;;5074238;28;20188;-65
2020/12/08 04:08:44;;;;;;;15.70;12.27;;;21.60;53.30;;;;;;5074248;28;20618;-65
2020/12/08 04:11:11;;;;;;;14.87;10.13;;;21.60;53.30;;;;;;5074029;28;20427;-66
2020/12/08 04:13:36;;;;;;;13.57;10.10;;;21.60;53.30;;;;;;5074105;28;21002;-65
2020/12/08 04:16:03;;;;;;;14.07;9.27;;;21.60;53.30;;;;;;5072799;28;20500;-66
2020/12/08 04:18:29;;;;;;;13.17;9.60;;;21.60;53.30;;;;;;5074478;28;20233;-66
2020/12/08 04:20:54;;;;;;;11.43;9.40;;;21.60;53.30;;;;;;5074129;28;20883;-67
2020/12/08 04:23:20;;;;;;;12.80;9.83;;;21.60;53.30;;;;;;5072538;28;20190;-66
2020/12/08 04:25:46;;;;;;;12.50;9.60;;;21.60;53.30;;;;;;5074091;28;20201;-66
2020/12/08 04:28:12;;;;;;;12.40;9.53;;;21.60;53.30;;;;;;5073726;28;20163;-66
2020/12/08 04:30:38;;;;;;;14.30;9.73;;;21.60;53.30;;;;;;5074384;28;20404;-65
2020/12/08 04:33:04;;;;;;;13.17;10.57;;;21.60;53.20;;;;;;5073690;28;20194;-66
2020/12/08 04:35:31;;;;;;;9.33;7.97;;;21.60;53.60;;;;;;5073756;28;20407;-66
2020/12/08 04:37:57;;;;;;;12.43;9.70;;;21.60;53.20;;;;;;5073623;28;20439;-66
2020/12/08 04:40:24;;;;;;;12.03;9.53;;;21.60;53.20;;;;;;5073842;28;20451;-66
2020/12/08 04:42:53;;;;;;;11.57;9.03;;;21.60;53.20;;;;;;5073429;28;20428;-66
2020/12/08 04:45:20;;;;;;;10.97;9.60;;;21.60;53.20;;;;;;5073794;28;20404;-66
2020/12/08 04:47:46;;;;;;;16.47;10.00;;;21.60;53.20;;;;;;5072719;28;20454;-66
2020/12/08 04:50:13;;;;;;;11.80;9.70;;;21.60;53.30;;;;;;5073337;28;20443;-66
2020/12/08 04:52:40;;;;;;;12.30;9.47;;;21.60;53.30;;;;;;5073337;28;20490;-66
2020/12/08 04:55:06;;;;;;;13.10;9.87;;;21.60;53.30;;;;;;5073424;28;20404;-66
2020/12/08 04:57:32;;;;;;;11.57;9.43;;;21.50;53.30;;;;;;5073383;28;20967;-66
2020/12/08 05:00:15;;;;;;;12.97;10.30;;;21.50;53.30;;;;;;5073258;28;20442;-66
2020/12/08 05:02:52;;;;;;;12.40;9.43;;;21.50;53.40;;;;;;5073192;28;20190;-66
2020/12/08 05:05:19;;;;;;;13.10;9.47;;;21.50;53.40;;;;;;5073262;28;20403;-65
2020/12/08 05:07:46;;;;;;;14.73;9.67;;;21.50;53.50;;;;;;5073459;28;20937;-66
2020/12/08 05:10:12;;;;;;;13.63;9.93;;;21.50;53.50;;;;;;5072981;28;20435;-67
2020/12/08 05:12:38;;;;;;;12.87;9.07;;;21.40;53.50;;;;;;5073035;28;20429;-66
2020/12/08 05:15:09;;;;;;;13.77;10.43;;;21.50;53.60;;;;;;5073187;28;20409;-66
2020/12/08 05:17:35;;;;;;;12.30;9.93;;;21.40;53.50;;;;;;5072578;28;20216;-65
2020/12/08 05:20:08;;;;;;;11.80;9.10;;;21.40;53.60;;;;;;5071675;28;20452;-65
2020/12/08 05:22:36;;;;;;;9.70;8.33;;;21.40;53.60;;;;;;5071672;28;20692;-66
2020/12/08 05:25:08;;;;;;;14.57;10.43;;;21.40;53.60;;;;;;5072967;28;20405;-65
2020/12/08 05:27:35;;;;;;;12.17;9.70;;;21.40;53.60;;;;;;5072920;28;20411;-66
2020/12/08 05:30:06;;;;;;;13.43;9.17;;;21.40;53.70;;;;;;5072931;28;20495;-66
2020/12/08 05:32:36;;;;;;;13.70;10.03;;;21.40;53.70;;;;;;5072812;28;20425;-66
2020/12/08 05:35:05;;;;;;;11.30;8.63;;;21.40;53.70;;;;;;5072936;28;20519;-66
2020/12/08 05:37:35;;;;;;;11.77;8.37;;;21.40;53.70;;;;;;5072861;28;20412;-66
2020/12/08 05:40:04;;;;;;;10.80;8.23;;;21.40;53.70;;;;;;5072801;28;20451;-67
2020/12/08 05:42:33;;;;;;;11.47;8.37;;;21.40;53.70;;;;;;5072683;28;20424;-66
2020/12/08 05:44:59;;;;;;;10.00;8.50;;;21.40;53.70;;;;;;5072881;28;20411;-66
2020/12/08 05:47:25;;;;;;;11.37;9.50;;;21.40;53.70;;;;;;5072723;28;20408;-66
2020/12/08 05:50:02;;;;;;;19.73;10.77;;;21.40;53.50;;;;;;5072994;28;20415;-66
2020/12/08 05:52:32;;;;;;;10.80;8.83;;;21.40;54.00;;;;;;5072972;28;20734;-66
2020/12/08 05:55:11;;;;;;;9.83;7.83;;;21.40;53.50;;;;;;5072631;28;20439;-66
2020/12/08 05:57:38;;;;;;;9.97;7.80;;;21.40;53.50;;;;;;5071339;28;20490;-67
2020/12/08 06:00:06;;;;;;;11.07;8.13;;;21.40;53.50;;;;;;5074972;28;20531;-68
2020/12/08 06:02:32;;;;;;;14.67;8.80;;;21.40;53.50;;;;;;5074372;28;21022;-68
2020/12/08 06:04:59;;;;;;;11.33;8.00;;;21.40;53.60;;;;;;5075673;28;20557;-67
2020/12/08 06:07:29;;;;;;;10.33;9.10;;;21.40;53.50;;;;;;5076031;28;20415;-67
2020/12/08 06:10:09;;;;;;;13.97;9.30;;;21.40;53.40;;;;;;5075483;28;20531;-67
2020/12/08 06:12:36;;;;;;;10.40;8.70;;;21.40;53.10;;;;;;5075643;28;20432;-67
2020/12/08 06:15:17;;;;;;;14.67;7.63;;;21.30;52.50;;;;;;5075599;28;20538;-68
2020/12/08 06:17:46;;;;;;;8.27;6.83;;;21.30;52.30;;;;;;5076438;28;20393;-67
2020/12/08 06:20:13;;;;;;;9.20;6.70;;;21.30;52.30;;;;;;5074824;28;20463;-67
2020/12/08 06:22:38;;;;;;;7.87;6.57;;;21.30;52.40;;;;;;5074833;28;20985;-66
2020/12/08 06:25:04;;;;;;;8.00;6.60;;;21.30;52.50;;;;;;5076324;28;20400;-67
2020/12/08 06:27:32;;;;;;;7.43;6.43;;;21.30;52.60;;;;;;5076030;28;20443;-67
2020/12/08 06:29:58;;;;;;;7.17;6.10;;;21.30;52.70;;;;;;5076275;28;20960;-67
2020/12/08 06:32:24;;;;;;;9.47;7.20;;;21.30;52.80;;;;;;5076087;28;20416;-66
2020/12/08 06:34:50;;;;;;;6.70;5.83;;;21.30;52.90;;;;;;5076243;28;20224;-67
2020/12/08 06:37:16;;;;;;;9.10;6.23;;;21.30;53.00;;;;;;5076232;28;20412;-66
2020/12/08 06:39:41;;;;;;;8.53;6.90;;;21.30;53.00;;;;;;5075892;28;20472;-67
2020/12/08 06:42:14;;;;;;;8.43;6.50;;;21.30;53.00;;;;;;5075866;28;20216;-65
2020/12/08 06:44:40;;;;;;;7.20;5.67;;;21.30;53.60;;;;;;5076111;28;20166;-66
2020/12/08 06:47:06;;;;;;;9.03;6.20;;;21.30;53.10;;;;;;5074549;28;20499;-64
2020/12/08 06:49:36;;;;;;;8.30;5.80;;;21.30;53.00;;;;;;5076026;28;20166;-67
2020/12/08 06:52:03;;;;;;;8.17;6.20;;;21.30;53.00;;;;;;5075855;28;20217;-66
2020/12/08 06:54:29;;;;;;;7.40;5.90;;;21.30;53.10;;;;;;5075931;28;20393;-67
2020/12/08 06:57:02;;;;;;;8.30;6.43;;;21.30;53.00;;;;;;5075589;28;20747;-65
2020/12/08 06:59:29;;;;;;;12.20;6.90;;;21.30;52.90;;;;;;5075672;28;20645;-65
2020/12/08 07:01:56;;;;;;;7.73;5.63;;;21.30;52.90;;;;;;5075449;28;20866;-67
2020/12/08 07:04:24;;;;;;;7.27;5.80;;;21.30;53.00;;;;;;5075459;28;20408;-65
2020/12/08 07:06:50;;;;;;;8.27;6.10;;;21.30;53.00;;;;;;5075428;28;20416;-66
2020/12/08 07:09:16;;;;;;;7.87;5.70;;;21.30;53.00;;;;;;5075326;28;20434;-65
2020/12/08 07:11:42;;;;;;;6.90;5.40;;;21.40;53.00;;;;;;5074647;28;20946;-65
2020/12/08 07:14:08;;;;;;;9.07;6.03;;;21.40;53.00;;;;;;5075375;28;20415;-66
2020/12/08 07:16:35;;;;;;;7.20;5.30;;;21.40;53.00;;;;;;5075441;28;20193;-66
2020/12/08 07:19:02;;;;;;;6.20;5.30;;;21.40;53.00;;;;;;5075415;28;20179;-66
2020/12/08 07:21:28;;;;;;;7.50;5.53;;;21.40;53.00;;;;;;5075125;28;20470;-66
2020/12/08 07:23:56;;;;;;;7.03;5.90;;;21.40;52.90;;;;;;5075287;28;20496;-66
2020/12/08 07:26:28;;;;;;;6.17;5.20;;;21.40;52.90;;;;;;5075226;28;20167;-66
2020/12/08 07:28:56;;;;;;;8.50;5.97;;;21.40;52.90;;;;;;5075190;28;20461;-65
2020/12/08 07:31:31;;;;;;;8.67;5.70;;;21.40;52.90;;;;;;5075024;28;20408;-65
2020/12/08 07:34:00;;;;;;;6.97;5.97;;;21.40;52.90;;;;;;5075302;28;20391;-66
2020/12/08 07:36:37;;;;;;;5.90;4.90;;;21.40;52.90;;;;;;5074938;28;20534;-66
2020/12/08 07:39:03;;;;;;;6.40;5.70;;;21.50;53.00;;;;;;5074840;28;20400;-65
2020/12/08 07:41:31;;;;;;;7.77;5.90;;;21.40;52.90;;;;;;5074821;28;20463;-65
2020/12/08 07:43:58;;;;;;;5.30;4.80;;;21.40;52.90;;;;;;5073497;28;20413;-66
2020/12/08 07:46:31;;;;;;;9.80;5.50;;;21.50;53.00;;;;;;5074641;28;20404;-64
2020/12/08 07:49:07;;;;;;;7.00;5.70;;;21.50;52.90;;;;;;5073284;28;20926;-64
2020/12/08 07:51:35;;;;;;;6.23;5.40;;;21.50;52.90;;;;;;5074726;28;20549;-64
2020/12/08 07:54:02;;;;;;;6.00;5.10;;;21.50;52.90;;;;;;5074523;28;20467;-65
2020/12/08 07:56:30;;;;;;;7.13;4.80;;;21.50;52.90;;;;;;5074449;28;20929;-66
2020/12/08 07:58:57;;;;;;;6.57;4.63;;;21.50;52.90;;;;;;5074463;28;20419;-65
2020/12/08 08:01:23;;;;;;;7.50;5.10;;;21.50;53.00;;;;;;5074221;28;20531;-66
2020/12/08 08:03:49;;;;;;;5.80;5.13;;;21.50;53.00;;;;;;5074288;28;20485;-65
2020/12/08 08:06:20;;;;;;;8.43;4.93;;;21.50;53.00;;;;;;5072981;28;20415;-66
2020/12/08 08:08:46;;;;;;;6.70;5.23;;;21.40;52.90;;;;;;5074161;28;20806;-66
2020/12/08 08:11:12;;;;;;;7.43;5.07;;;21.40;52.90;;;;;;5074286;28;20802;-66
2020/12/08 08:13:38;;;;;;;6.57;5.37;;;21.40;52.90;;;;;;5074151;28;20467;-66
2020/12/08 08:16:03;;;;;;;7.70;5.47;;;21.40;52.90;;;;;;5074207;28;20440;-66
2020/12/08 08:18:32;;;;;;;6.40;4.60;;;21.50;52.90;;;;;;5074042;28;20177;-65
2020/12/08 08:20:59;;;;;;;6.63;4.70;;;21.50;52.80;;;;;;5074248;28;20201;-67
2020/12/08 08:23:24;;;;;;;6.53;5.00;;;21.50;53.40;;;;;;5072468;28;20524;-66
2020/12/08 08:25:50;;;;;;;7.20;4.73;;;21.50;52.90;;;;;;5073844;28;20843;-67
2020/12/08 08:28:16;;;;;;;6.40;4.87;;;21.50;52.90;;;;;;5073882;28;20665;-66
2020/12/08 08:30:41;;;;;;;6.87;5.30;;;21.60;53.00;;;;;;5074052;28;20198;-67
2020/12/08 08:33:07;;;;;;;4.93;4.40;;;21.60;53.00;;;;;;5074020;28;20198;-67
2020/12/08 08:35:33;;;;;;;7.50;4.20;;;21.60;53.00;;;;;;5073639;28;20202;-67
2020/12/08 08:37:59;;;;;;;7.63;5.27;;;21.60;52.90;;;;;;5073705;28;20202;-66
2020/12/08 08:40:25;;;;;;;6.23;5.20;;;21.60;52.90;;;;;;5073572;28;20200;-67
2020/12/08 08:42:50;;;;;;;7.63;4.60;;;21.60;52.90;;;;;;5073605;28;20452;-67
2020/12/08 08:45:16;;;;;;;7.43;5.23;;;21.70;53.00;;;;;;5073602;28;20617;-67
2020/12/08 08:47:42;;;;;;;5.53;4.30;;;21.70;53.00;;;;;;5073594;28;20648;-67
2020/12/08 08:50:07;;;;;;;6.83;5.43;;;21.70;52.90;;;;;;5073562;28;20182;-66
2020/12/08 08:52:33;;;;;;;6.43;4.80;;;21.70;52.90;;;;;;5073648;28;20277;-67
2020/12/08 08:54:59;;;;;;;7.03;5.00;;;21.70;52.90;;;;;;5073400;28;20198;-66
2020/12/08 08:57:25;;;;;;;6.10;5.03;;;21.80;52.90;;;;;;5073700;28;20617;-67
2020/12/08 08:59:51;;;;;;;5.10;4.20;;;21.80;52.90;;;;;;5073247;28;20162;-67
2020/12/08 09:02:16;;;;;;;5.40;4.90;;;21.80;52.90;;;;;;5073256;28;20443;-65
2020/12/08 09:04:42;;;;;;;6.87;5.40;;;21.80;52.90;;;;;;5073494;28;20613;-67
2020/12/08 09:07:08;;;;;;;5.60;4.57;;;21.80;52.80;;;;;;5073558;28;20151;-67
2020/12/08 09:09:34;;;;;;;7.40;5.30;;;21.80;52.80;;;;;;5073087;28;20186;-67
2020/12/08 09:12:00;;;;;;;5.83;5.17;;;21.80;52.80;;;;;;5073824;28;20186;-66
2020/12/08 09:14:28;;;;;;;5.73;4.57;;;21.90;52.90;;;;;;5072645;28;20474;-66
2020/12/08 09:16:54;;;;;;;6.37;4.70;;;21.90;52.90;;;;;;5073350;28;20385;-67
2020/12/08 09:19:19;;;;;;;7.30;4.87;;;21.90;52.90;;;;;;5073359;28;20469;-67
2020/12/08 09:21:53;;;;;;;5.33;4.83;;;21.90;52.80;;;;;;5072943;28;20206;-66
2020/12/08 09:24:19;;;;;;;6.00;4.83;;;21.90;52.80;;;;;;5073060;28;20637;-65
2020/12/08 09:26:45;;;;;;;8.80;4.90;;;21.90;52.80;;;;;;5073375;28;20413;-65
2020/12/08 09:29:11;;;;;;;10.10;5.17;;;21.90;52.90;;;;;;5072968;28;20432;-66
2020/12/08 09:31:37;;;;;;;6.53;4.67;;;21.90;52.80;;;;;;5072943;28;20248;-66
2020/12/08 09:34:03;;;;;;;6.03;4.50;;;22.00;52.90;;;;;;5072451;28;20567;-66
2020/12/08 09:36:28;;;;;;;4.33;3.90;;;21.90;52.80;;;;;;5072875;28;20220;-67
2020/12/08 09:38:54;;;;;;;6.07;4.50;;;22.00;52.90;;;;;;5073176;28;20590;-66
2020/12/08 09:41:20;;;;;;;6.30;5.17;;;22.00;52.90;;;;;;5072685;28;20206;-66
2020/12/08 09:43:45;;;;;;;7.23;4.60;;;22.00;52.90;;;;;;5072797;28;20759;-66
2020/12/08 09:46:11;;;;;;;6.53;4.50;;;22.00;52.90;;;;;;5073114;28;20170;-66
2020/12/08 09:48:37;;;;;;;5.17;4.40;;;22.00;52.90;;;;;;5073099;28;20198;-66
2020/12/08 09:51:03;;;;;;;10.93;4.80;;;22.00;52.90;;;;;;5073218;28;20177;-65
2020/12/08 09:53:28;;;;;;;8.10;5.30;;;22.00;52.90;;;;;;5072649;28;20221;-66
2020/12/08 09:55:54;;;;;;;7.13;5.27;;;22.00;52.90;;;;;;5072735;28;20487;-67
2020/12/08 09:58:20;;;;;;;7.30;5.10;;;22.00;52.90;;;;;;5073111;28;20174;-65
2020/12/08 10:00:45;;;;;;;5.47;4.63;;;22.10;53.00;;;;;;5072830;28;20252;-66
2020/12/08 10:03:11;;;;;;;5.00;4.30;;;22.00;52.90;;;;;;5072570;28;20722;-66
2020/12/08 10:05:37;;;;;;;5.80;4.90;;;22.00;52.90;;;;;;5072726;28;20163;-66
2020/12/08 10:08:02;;;;;;;5.87;4.77;;;22.00;52.90;;;;;;5072709;28;20174;-65
2020/12/08 10:10:28;;;;;;;7.40;4.70;;;22.10;52.90;;;;;;5070699;28;20328;-67
2020/12/08 10:12:54;;;;;;;7.77;5.07;;;22.10;52.90;;;;;;5070523;28;20200;-68
2020/12/08 10:15:20;;;;;;;6.30;4.70;;;22.10;52.90;;;;;;5070549;28;20253;-66
2020/12/08 10:17:46;;;;;;;7.97;4.33;;;22.10;52.90;;;;;;5069151;28;20185;-67
2020/12/08 10:20:12;;;;;;;7.20;4.60;;;22.10;52.90;;;;;;5070725;28;20448;-64
2020/12/08 10:22:38;;;;;;;7.23;4.40;;;22.10;52.90;;;;;;5071458;28;21001;-66
2020/12/08 10:25:04;;;;;;;7.93;4.40;;;22.10;52.90;;;;;;5072176;28;20472;-66
2020/12/08 10:27:30;;;;;;;7.63;5.30;;;22.10;52.90;;;;;;5072543;28;20975;-66
2020/12/08 10:29:55;;;;;;;6.80;4.77;;;22.10;52.90;;;;;;5072432;28;20495;-65
2020/12/08 10:32:21;;;;;;;8.67;4.37;;;22.10;52.90;;;;;;5072365;28;20218;-66
2020/12/08 10:34:47;;;;;;;5.87;4.30;;;22.10;52.90;;;;;;5072477;28;20188;-67
2020/12/08 10:37:12;;;;;;;6.60;4.70;;;22.20;52.90;;;;;;5072353;28;20185;-66
2020/12/08 10:39:38;;;;;;;6.03;4.20;;;22.10;52.90;;;;;;5072371;28;20244;-67
2020/12/08 10:42:03;;;;;;;5.20;4.63;;;22.10;52.90;;;;;;5072419;28;20233;-65
2020/12/08 10:44:29;;;;;;;5.30;4.60;;;22.10;52.90;;;;;;5072276;28;20174;-66
2020/12/08 10:46:55;;;;;;;8.37;4.93;;;22.10;52.90;;;;;;5074307;28;20167;-67
2020/12/08 10:49:21;;;;;;;10.30;5.47;;;22.10;52.90;;;;;;5074549;28;20174;-67
2020/12/08 10:51:47;;;;;;;10.30;5.17;;;22.10;52.90;;;;;;5075663;28;20203;-66
2020/12/08 10:54:13;;;;;;;7.77;3.97;;;22.10;52.90;;;;;;5075915;28;20461;-66
2020/12/08 10:56:38;;;;;;;6.53;4.33;;;22.10;53.00;;;;;;5075588;28;20537;-66
2020/12/08 10:59:04;;;;;;;5.80;3.90;;;22.10;53.00;;;;;;5075547;28;20700;-65
2020/12/08 11:01:30;;;;;;;7.43;3.80;;;22.10;53.00;;;;;;5075685;28;20206;-66
2020/12/08 11:03:56;;;;;;;8.80;4.30;;;22.10;53.10;;;;;;5075531;28;20202;-66
2020/12/08 11:06:27;;;;;;;5.73;3.87;;;22.10;53.00;;;;;;5075720;28;20249;-66
2020/12/08 11:08:54;;;;;;;5.77;4.10;;;22.10;53.00;;;;;;5075316;28;20429;-66
2020/12/08 11:11:24;;;;;;;6.53;4.20;;;22.10;53.10;;;;;;5075296;28;20507;-66
2020/12/08 11:13:51;;;;;;;7.80;4.30;;;22.20;53.10;;;;;;5074088;28;20464;-66
2020/12/08 11:16:17;;;;;;;12.13;4.67;;;22.10;53.00;;;;;;5074013;28;20420;-66
2020/12/08 11:18:43;;;;;;;7.17;4.87;;;22.10;53.00;;;;;;5075338;28;20828;-66
2020/12/08 11:21:09;;;;;;;9.00;4.57;;;22.20;53.10;;;;;;5075560;28;20483;-65
2020/12/08 11:23:36;;;;;;;4.80;4.30;;;22.10;53.00;;;;;;5075150;28;20780;-67
2020/12/08 11:26:01;;;;;;;5.23;4.60;;;22.10;53.00;;;;;;5075158;28;20177;-66
2020/12/08 11:28:27;;;;;;;6.30;4.50;;;22.20;53.10;;;;;;5075221;28;20409;-66
2020/12/08 11:30:53;;;;;;;6.23;3.87;;;22.10;53.00;;;;;;5075262;28;20235;-65
2020/12/08 11:33:18;;;;;;;5.57;4.00;;;22.10;53.00;;;;;;5075023;28;20247;-67
2020/12/08 11:35:44;;;;;;;6.77;4.43;;;22.10;53.10;;;;;;5074928;28;20236;-66
2020/12/08 11:38:10;;;;;;;8.13;4.77;;;22.10;53.00;;;;;;5074936;28;20548;-67
2020/12/08 11:40:35;;;;;;;6.63;3.77;;;22.10;53.00;;;;;;5074806;28;20281;-67
2020/12/08 11:43:01;;;;;;;6.63;4.00;;;22.10;53.10;;;;;;5074726;28;20191;-67
2020/12/08 11:45:26;;;;;;;6.67;4.80;;;22.20;53.10;;;;;;5073489;28;20186;-66
2020/12/08 11:47:52;;;;;;;12.10;4.03;;;22.10;53.00;;;;;;5074690;28;20183;-67
2020/12/08 11:50:18;;;;;;;7.60;4.60;;;22.20;53.20;;;;;;5074636;28;20660;-66
2020/12/08 11:52:43;;;;;;;5.17;3.97;;;22.20;53.10;;;;;;5074459;28;20190;-67
2020/12/08 11:55:09;;;;;;;6.70;4.03;;;22.20;53.70;;;;;;5073201;28;20190;-67
2020/12/08 11:57:36;;;;;;;8.10;4.20;;;22.20;53.10;;;;;;5074121;28;20174;-67
2020/12/08 12:00:06;;;;;;;5.90;4.00;;;22.20;53.10;;;;;;5073117;28;20178;-67
2020/12/08 12:02:31;;;;;;;6.03;3.87;;;22.20;53.10;;;;;;5074492;28;20474;-67
2020/12/08 12:04:57;;;;;;;5.73;3.50;;;22.20;53.10;;;;;;5074351;28;20907;-66
2020/12/08 12:07:23;;;;;;;8.10;3.90;;;22.20;53.10;;;;;;5074556;28;20182;-66
2020/12/08 12:09:48;;;;;;;4.93;3.50;;;22.20;53.10;;;;;;5074142;28;20732;-67
2020/12/08 12:12:14;;;;;;;6.53;4.40;;;22.20;53.10;;;;;;5074259;28;20425;-67
2020/12/08 12:14:39;;;;;;;5.50;3.80;;;22.20;53.20;;;;;;5074241;28;20572;-66
2020/12/08 12:17:05;;;;;;;5.00;3.60;;;22.20;53.20;;;;;;5074195;28;20166;-67
2020/12/08 12:19:32;;;;;;;5.30;4.20;;;22.20;53.20;;;;;;5074082;28;20747;-68
2020/12/08 12:21:58;;;;;;;7.20;3.93;;;22.20;53.20;;;;;;5074671;28;20287;-69
2020/12/08 12:24:24;;;;;;;8.43;4.03;;;22.20;53.20;;;;;;5073938;28;20423;-66
2020/12/08 12:26:49;;;;;;;5.03;3.70;;;22.20;53.20;;;;;;5073820;28;20397;-66
2020/12/08 12:29:15;;;;;;;5.93;3.73;;;22.20;53.20;;;;;;5073924;28;20163;-66
2020/12/08 12:31:47;;;;;;;4.20;3.03;;;22.20;53.20;;;;;;5073918;28;20624;-66
2020/12/08 12:34:14;;;;;;;4.83;4.17;;;22.20;53.20;;;;;;5073787;28;20220;-66